createdAt,value
2023-03-22T00:00:33.869Z,10.60
2023-03-22T00:03:39.202Z,8.73
2023-03-22T00:06:42.035Z,9.30
2023-03-22T00:09:46.569Z,9.87
2023-03-22T00:12:49.252Z,8.75
2023-03-22T00:15:52.257Z,8.40
2023-03-22T00:18:55.204Z,8.73
2023-03-22T00:21:58.063Z,8.47
2023-03-22T00:25:02.235Z,9.77
2023-03-22T00:28:05.394Z,8.05
2023-03-22T00:31:08.352Z,8.40
2023-03-22T00:34:11.663Z,7.60
2023-03-22T00:37:16.374Z,7.87
2023-03-22T00:40:20.859Z,7.90
2023-03-22T00:43:23.571Z,7.18
2023-03-22T00:46:27.283Z,8.23
2023-03-22T00:49:31.206Z,7.47
2023-03-22T00:52:34.566Z,7.53
2023-03-22T00:55:38.674Z,7.87
2023-03-22T00:58:41.663Z,7.00
2023-03-22T01:01:44.823Z,7.03
2023-03-22T01:04:48.286Z,7.53
2023-03-22T01:07:51.715Z,7.30
2023-03-22T01:10:56.017Z,8.23
2023-03-22T01:13:59.693Z,8.77
2023-03-22T01:17:02.752Z,7.47
2023-03-22T01:20:06.951Z,7.97
2023-03-22T01:23:09.822Z,7.83
2023-03-22T01:26:13.933Z,8.03
2023-03-22T01:29:17.211Z,7.72
2023-03-22T01:32:19.880Z,7.57
2023-03-22T01:35:22.759Z,7.13
2023-03-22T01:38:25.824Z,8.00
2023-03-22T01:41:30.079Z,8.00
2023-03-22T01:44:33.422Z,7.22
2023-03-22T01:47:36.655Z,6.80
2023-03-22T01:50:42.566Z,8.10
2023-03-22T01:53:49.966Z,9.20
2023-03-22T01:56:54.264Z,7.67
2023-03-22T01:59:57.490Z,8.82
2023-03-22T02:03:00.813Z,7.57
2023-03-22T02:06:04.126Z,9.65
2023-03-22T02:09:08.115Z,8.80
2023-03-22T02:12:22.025Z,8.23
2023-03-22T02:15:31.025Z,8.57
2023-03-22T02:18:46.957Z,9.90
2023-03-22T02:22:22.904Z,8.85
2023-03-22T02:26:01.011Z,7.87
2023-03-22T02:29:12.733Z,8.57
2023-03-22T02:32:47.377Z,7.80
2023-03-22T02:36:01.664Z,8.65
2023-03-22T02:39:16.682Z,8.20
2023-03-22T02:42:37.274Z,8.73
2023-03-22T02:45:48.419Z,8.30
2023-03-22T02:48:58.402Z,8.63
2023-03-22T02:52:04.248Z,8.88
2023-03-22T02:55:13.075Z,8.05
2023-03-22T02:58:19.145Z,7.73
2023-03-22T03:01:27.886Z,8.63
2023-03-22T03:04:35.563Z,7.70
2023-03-22T03:07:39.775Z,8.50
2023-03-22T03:10:45.069Z,7.97
2023-03-22T03:13:49.192Z,8.73
2023-03-22T03:17:03.621Z,8.60
2023-03-22T03:20:24.651Z,8.00
2023-03-22T03:23:34.806Z,8.25
2023-03-22T03:26:47.232Z,8.02
2023-03-22T03:29:53.676Z,9.50
2023-03-22T03:33:01.055Z,9.47
2023-03-22T03:36:06.322Z,9.25
2023-03-22T03:39:13.720Z,8.77
2023-03-22T03:42:19.411Z,9.27
2023-03-22T03:45:23.208Z,9.87
2023-03-22T03:48:29.591Z,9.07
2023-03-22T03:51:34.530Z,8.68
2023-03-22T03:54:37.719Z,9.45
2023-03-22T03:57:41.912Z,8.25
2023-03-22T04:00:46.108Z,8.40
2023-03-22T04:03:50.673Z,8.13
2023-03-22T04:06:56.882Z,8.70
2023-03-22T04:09:59.657Z,8.50
2023-03-22T04:13:03.744Z,8.10
2023-03-22T04:16:07.453Z,8.53
2023-03-22T04:19:10.320Z,7.77
2023-03-22T04:22:14.913Z,8.55
2023-03-22T04:25:19.016Z,9.23
2023-03-22T04:28:23.905Z,8.73
2023-03-22T04:31:27.046Z,8.00
2023-03-22T04:34:29.890Z,9.40
2023-03-22T04:37:33.820Z,8.23
2023-03-22T04:40:38.791Z,7.95
2023-03-22T04:43:47.146Z,8.13
2023-03-22T04:46:49.979Z,8.90
2023-03-22T04:49:53.022Z,8.90
2023-03-22T04:52:55.774Z,8.73
2023-03-22T04:55:58.893Z,8.60
2023-03-22T04:59:03.514Z,9.38
2023-03-22T05:02:06.350Z,8.83
2023-03-22T05:05:09.309Z,8.33
2023-03-22T05:08:14.391Z,8.88
2023-03-22T05:11:19.414Z,8.00
2023-03-22T05:14:23.652Z,7.50
2023-03-22T05:17:26.543Z,8.70
2023-03-22T05:20:29.382Z,8.73
2023-03-22T05:23:32.202Z,9.30
2023-03-22T05:26:38.001Z,7.93
2023-03-22T05:29:45.205Z,8.85
2023-03-22T05:32:49.533Z,9.60
2023-03-22T05:35:52.579Z,8.83
2023-03-22T05:38:55.512Z,10.50
2023-03-22T05:41:58.233Z,9.45
2023-03-22T05:45:02.444Z,9.10
2023-03-22T05:48:05.410Z,8.63
2023-03-22T05:51:09.352Z,8.17
2023-03-22T05:54:12.158Z,8.88
2023-03-22T05:57:14.902Z,9.48
2023-03-22T06:00:20.303Z,8.68
2023-03-22T06:03:29.816Z,8.77
2023-03-22T06:06:48.186Z,7.50
2023-03-22T06:09:50.940Z,9.10
2023-03-22T06:12:54.234Z,8.63
2023-03-22T06:16:01.479Z,8.00
2023-03-22T06:19:04.372Z,9.63
2023-03-22T06:22:07.343Z,8.77
2023-03-22T06:25:11.848Z,9.17
2023-03-22T06:28:14.740Z,8.73
2023-03-22T06:31:18.891Z,8.43
2023-03-22T06:34:21.624Z,8.18
2023-03-22T06:37:25.014Z,9.05
2023-03-22T06:40:28.034Z,9.00
2023-03-22T06:43:30.829Z,8.40
2023-03-22T06:46:34.923Z,8.38
2023-03-22T06:49:37.682Z,7.95
2023-03-22T06:52:40.558Z,8.50
2023-03-22T06:55:43.305Z,9.43
2023-03-22T06:58:46.193Z,8.10
2023-03-22T07:01:50.391Z,8.82
2023-03-22T07:04:53.215Z,9.60
2023-03-22T07:07:55.979Z,9.57
2023-03-22T07:10:58.886Z,8.63
2023-03-22T07:14:01.609Z,9.52
2023-03-22T07:17:05.865Z,9.32
2023-03-22T07:20:09.912Z,8.73
2023-03-22T07:23:12.825Z,8.70
2023-03-22T07:26:15.786Z,9.70
2023-03-22T07:29:18.475Z,8.25
2023-03-22T07:32:22.609Z,9.52
2023-03-22T07:35:26.959Z,9.57
2023-03-22T07:38:29.806Z,9.18
2023-03-22T07:41:32.768Z,9.85
2023-03-22T07:44:36.966Z,8.40
2023-03-22T07:47:41.682Z,8.65
2023-03-22T07:50:44.510Z,8.00
2023-03-22T07:53:47.229Z,8.68
2023-03-22T07:56:50.282Z,9.23
2023-03-22T07:59:52.980Z,9.02
2023-03-22T08:02:57.198Z,8.43
2023-03-22T08:06:03.761Z,7.77
2023-03-22T08:09:08.343Z,7.22
2023-03-22T08:12:11.193Z,8.48
2023-03-22T08:15:14.116Z,8.60
2023-03-22T08:18:18.360Z,8.77
2023-03-22T08:21:21.297Z,7.13
2023-03-22T08:24:24.147Z,7.65
2023-03-22T08:27:27.327Z,7.97
2023-03-22T08:30:30.185Z,7.20
2023-03-22T08:33:34.608Z,7.53
2023-03-22T08:36:38.533Z,7.40
2023-03-22T08:39:41.715Z,8.90
2023-03-22T08:42:46.413Z,8.15
2023-03-22T08:45:49.270Z,6.78
2023-03-22T08:48:53.853Z,8.25
2023-03-22T08:51:57.601Z,7.23
2023-03-22T08:55:01.104Z,8.02
2023-03-22T08:58:04.686Z,8.00
2023-03-22T09:01:07.817Z,7.60
2023-03-22T09:04:12.023Z,7.28
2023-03-22T09:07:15.093Z,7.80
2023-03-22T09:10:17.983Z,7.60
2023-03-22T09:13:21.333Z,7.23
2023-03-22T09:16:24.353Z,7.97
2023-03-22T09:19:28.990Z,6.72
2023-03-22T09:22:32.110Z,7.53
2023-03-22T09:25:34.901Z,6.03
2023-03-22T09:28:38.215Z,7.23
2023-03-22T09:31:41.113Z,7.13
2023-03-22T09:34:45.695Z,6.90
2023-03-22T09:37:49.642Z,7.47
2023-03-22T09:41:00.447Z,6.97
2023-03-22T09:44:06.522Z,6.07
2023-03-22T09:47:16.506Z,6.80
2023-03-22T09:50:24.312Z,6.70
2023-03-22T09:53:29.237Z,6.88
2023-03-22T09:56:33.144Z,6.15
2023-03-22T09:59:43.674Z,6.40
2023-03-22T10:02:58.999Z,5.90
2023-03-22T10:06:06.136Z,6.15
2023-03-22T10:09:14.984Z,5.90
2023-03-22T10:12:24.654Z,5.70
2023-03-22T10:15:33.195Z,6.40
2023-03-22T10:18:39.333Z,7.03
2023-03-22T10:25:07.115Z,6.30
2023-03-22T10:28:19.584Z,5.85
2023-03-22T10:31:22.705Z,5.60
2023-03-22T10:34:31.130Z,5.73
2023-03-22T10:37:37.562Z,5.80
2023-03-22T10:40:41.535Z,6.53
2023-03-22T10:43:46.845Z,5.43
2023-03-22T10:46:51.973Z,5.67
2023-03-22T10:49:58.290Z,5.30
2023-03-22T10:53:07.199Z,5.80
2023-03-22T10:56:14.053Z,4.90
2023-03-22T10:59:48.339Z,4.90
2023-03-22T11:02:54.195Z,3.73
2023-03-22T11:06:02.840Z,4.10
2023-03-22T11:09:13.627Z,3.75
2023-03-22T11:12:17.102Z,3.58
2023-03-22T11:15:29.940Z,3.40
2023-03-22T11:18:34.764Z,3.00
2023-03-22T11:21:37.469Z,4.17
2023-03-22T11:24:41.774Z,4.40
2023-03-22T11:27:52.128Z,3.50
2023-03-22T11:31:07.261Z,3.50
2023-03-22T11:34:18.398Z,3.00
2023-03-22T11:37:23.058Z,2.73
2023-03-22T11:40:29.302Z,2.65
2023-03-22T11:43:38.499Z,2.60
2023-03-22T11:46:50.341Z,2.90
2023-03-22T11:49:55.344Z,2.30
2023-03-22T11:52:58.501Z,2.30
2023-03-22T11:56:07.575Z,2.53
2023-03-22T11:59:15.266Z,2.97
2023-03-22T12:02:24.554Z,2.92
2023-03-22T12:05:30.057Z,3.13
2023-03-22T12:08:42.654Z,2.50
2023-03-22T12:11:50.675Z,2.60
2023-03-22T12:14:58.438Z,2.80
2023-03-22T12:18:08.165Z,2.90
2023-03-22T12:21:11.917Z,2.60
2023-03-22T12:24:26.796Z,2.13
2023-03-22T12:27:35.267Z,2.08
2023-03-22T12:30:44.051Z,2.92
2023-03-22T12:33:50.261Z,2.65
2023-03-22T12:36:57.107Z,2.43
2023-03-22T12:40:05.728Z,2.43
2023-03-22T12:43:17.011Z,2.75
2023-03-22T12:46:23.740Z,2.67
2023-03-22T12:49:32.520Z,2.95
2023-03-22T12:52:45.771Z,2.97
2023-03-22T12:55:50.626Z,2.87
2023-03-22T12:58:58.348Z,2.75
2023-03-22T13:02:06.081Z,2.30
2023-03-22T13:05:12.235Z,2.65
2023-03-22T13:08:21.873Z,2.80
2023-03-22T13:11:25.561Z,2.57
2023-03-22T13:14:57.823Z,2.50
2023-03-22T13:18:00.567Z,2.38
2023-03-22T13:21:14.945Z,2.63
2023-03-22T13:24:23.695Z,2.37
2023-03-22T13:27:37.839Z,2.73
2023-03-22T13:30:52.711Z,2.70
2023-03-22T13:33:56.594Z,2.70
2023-03-22T13:37:03.686Z,2.03
2023-03-22T13:40:15.202Z,2.27
2023-03-22T13:43:30.333Z,2.47
2023-03-22T13:46:51.517Z,2.30
2023-03-22T13:50:01.346Z,2.20
2023-03-22T13:53:08.072Z,2.53
2023-03-22T13:56:14.378Z,2.77
2023-03-22T13:59:21.838Z,2.90
2023-03-22T14:02:30.148Z,2.53
2023-03-22T14:05:37.410Z,2.97
2023-03-22T14:08:42.900Z,2.15
2023-03-22T14:11:49.981Z,2.40
2023-03-22T14:14:57.995Z,2.33
2023-03-22T14:18:07.364Z,2.50
2023-03-22T14:21:15.344Z,2.42
